Time;durP1;ratioP1;P1;durP2;ratioP2;P2;SDS_P1;SDS_P2;PMS_P1;PMS_P2;Temp;Humidity;BMP_temperature;BMP_pressure;BME280_temperature;BME280_humidity;BME280_pressure;Samples;Min_cycle;Max_cycle;Signal;HPM_P1;HPM_P2
2021/12/23 00:02:04;;;;;;;20.27;12.27;;;-0.50;99.90;;;;;;4992452;28;20054;-65
2021/12/23 00:04:30;;;;;;;22.13;13.90;;;-0.40;99.90;;;;;;5008620;28;20049;-65
2021/12/23 00:06:55;;;;;;;25.60;13.25;;;-0.40;99.90;;;;;;4992421;28;20132;-65
2021/12/23 00:09:26;;;;;;;21.63;14.30;;;-0.40;99.90;;;;;;4992286;28;20046;-65
2021/12/23 00:11:52;;;;;;;20.17;12.65;;;-0.40;99.90;;;;;;5009063;28;20072;-65
2021/12/23 00:14:17;;;;;;;21.65;13.65;;;-0.40;99.90;;;;;;4990298;28;20033;-65
2021/12/23 00:16:48;;;;;;;19.05;12.23;;;-0.40;99.90;;;;;;5016709;28;20518;-65
2021/12/23 00:24:38;;;;;;;29.17;14.77;;;-0.50;99.90;;;;;;5001940;28;20085;-65
2021/12/23 00:27:04;;;;;;;22.70;13.30;;;-0.50;99.90;;;;;;4969688;28;20047;-64
2021/12/23 00:29:30;;;;;;;21.05;12.25;;;-0.50;99.90;;;;;;5001826;28;20518;-65
2021/12/23 00:31:56;;;;;;;22.75;14.48;;;-0.50;99.90;;;;;;4969475;28;20051;-65
2021/12/23 00:34:22;;;;;;;21.65;14.23;;;-0.50;99.90;;;;;;4969623;28;20048;-65
2021/12/23 00:36:48;;;;;;;19.55;13.30;;;-0.50;99.90;;;;;;4969420;28;20047;-65
2021/12/23 00:39:15;;;;;;;22.80;13.50;;;-0.50;99.90;;;;;;4969305;28;20149;-65
2021/12/23 00:41:44;;;;;;;22.98;14.07;;;-0.50;99.90;;;;;;4969459;28;20050;-65
2021/12/23 00:44:11;;;;;;;21.35;12.65;;;-0.40;99.90;;;;;;4966706;28;20043;-65
2021/12/23 00:46:37;;;;;;;24.52;12.57;;;-0.40;99.90;;;;;;4969488;28;20043;-65
2021/12/23 00:49:05;;;;;;;21.98;13.23;;;-0.40;99.90;;;;;;4969138;28;20391;-65
2021/12/23 00:51:32;;;;;;;22.90;12.50;;;-0.40;99.90;;;;;;4969406;28;20046;-65
2021/12/23 00:54:04;;;;;;;21.58;13.18;;;-0.40;99.90;;;;;;4969007;28;20043;-65
2021/12/23 00:56:35;;;;;;;19.95;12.88;;;-0.40;99.90;;;;;;4969391;28;20039;-65
2021/12/23 00:59:09;;;;;;;22.27;12.63;;;-0.40;99.90;;;;;;4953247;28;20120;-65
2021/12/23 01:01:35;;;;;;;21.83;13.23;;;-0.40;99.90;;;;;;4969115;28;20039;-65
2021/12/23 01:04:01;;;;;;;22.77;14.30;;;-0.40;99.90;;;;;;4968954;28;20039;-65
2021/12/23 01:06:27;;;;;;;25.13;14.32;;;-0.40;99.90;;;;;;4970381;28;20078;-65
2021/12/23 01:08:52;;;;;;;21.27;14.63;;;-0.40;99.90;;;;;;4972394;28;20088;-65
2021/12/23 01:11:18;;;;;;;25.23;14.90;;;-0.50;99.90;;;;;;4972515;28;20054;-65
2021/12/23 01:14:00;;;;;;;23.95;14.27;;;-0.50;99.90;;;;;;4954135;28;20039;-65
2021/12/23 01:16:47;;;;;;;22.45;12.50;;;-0.40;99.90;;;;;;4977545;28;20047;-65
2021/12/23 01:19:13;;;;;;;20.65;12.13;;;-0.50;99.90;;;;;;4994970;28;20052;-65
2021/12/23 01:21:39;;;;;;;22.00;13.00;;;-0.50;99.90;;;;;;4994990;28;20049;-65
2021/12/23 01:24:08;;;;;;;17.42;11.48;;;-0.40;99.90;;;;;;4978845;28;20041;-65
2021/12/23 01:26:34;;;;;;;21.83;13.57;;;-0.40;99.90;;;;;;4995174;28;20038;-65
2021/12/23 01:29:00;;;;;;;21.73;13.18;;;-0.40;99.90;;;;;;4994736;28;20181;-65
2021/12/23 01:31:29;;;;;;;21.98;13.73;;;-0.40;99.90;;;;;;4995112;28;20432;-65
2021/12/23 01:33:55;;;;;;;20.58;13.55;;;-0.40;99.90;;;;;;4994654;28;20041;-65
2021/12/23 01:36:25;;;;;;;19.58;11.85;;;-0.40;99.90;;;;;;4978806;28;20038;-65
2021/12/23 01:38:52;;;;;;;22.15;12.57;;;-0.40;99.90;;;;;;4994572;28;20034;-65
2021/12/23 01:41:18;;;;;;;22.25;13.88;;;-0.30;99.90;;;;;;5027381;28;20044;-65
2021/12/23 01:43:44;;;;;;;21.67;12.90;;;-0.30;99.90;;;;;;4976132;28;20049;-65
2021/12/23 01:46:10;;;;;;;23.15;13.65;;;-0.30;99.90;;;;;;5010671;28;20038;-65
2021/12/23 01:48:36;;;;;;;20.63;13.27;;;-0.30;99.90;;;;;;4994443;28;20038;-65
2021/12/23 01:51:03;;;;;;;13.50;7.50;;;-0.30;99.90;;;;;;4994531;28;20558;-65
2021/12/23 01:53:29;;;;;;;22.90;13.45;;;-0.30;99.90;;;;;;4994421;28;20096;-65
2021/12/23 01:55:54;;;;;;;20.13;13.85;;;-0.30;99.90;;;;;;5011057;28;20085;-65
2021/12/23 01:58:20;;;;;;;19.98;12.45;;;-0.30;99.90;;;;;;4994402;28;20124;-65
2021/12/23 02:00:49;;;;;;;21.98;13.98;;;-0.30;99.90;;;;;;4994215;28;20050;-65
2021/12/23 02:03:16;;;;;;;18.52;11.63;;;-0.30;99.90;;;;;;4994653;28;20443;-65
2021/12/23 02:05:43;;;;;;;20.55;12.88;;;-0.30;99.90;;;;;;4994206;28;20367;-65
2021/12/23 02:08:09;;;;;;;20.25;13.25;;;-0.30;99.90;;;;;;5027056;28;20124;-65
2021/12/23 02:10:35;;;;;;;21.05;13.27;;;-0.30;99.90;;;;;;4994295;28;20042;-65
2021/12/23 02:13:01;;;;;;;17.98;9.48;;;-0.30;99.90;;;;;;5010549;28;20080;-65
2021/12/23 02:15:27;;;;;;;23.55;14.10;;;-0.30;99.90;;;;;;4975518;28;20046;-65
2021/12/23 02:17:54;;;;;;;24.40;14.57;;;-0.30;99.90;;;;;;4993782;28;20115;-65
2021/12/23 02:20:23;;;;;;;24.00;14.55;;;-0.20;99.90;;;;;;5026806;28;20046;-65
2021/12/23 02:22:49;;;;;;;20.48;12.25;;;-0.30;99.90;;;;;;4994245;28;20072;-65
2021/12/23 02:25:16;;;;;;;19.23;12.80;;;-0.30;99.90;;;;;;5026608;28;20042;-65
2021/12/23 02:27:42;;;;;;;20.73;12.48;;;-0.30;99.90;;;;;;4977967;28;20046;-65
2021/12/23 02:30:12;;;;;;;23.35;13.68;;;-0.30;99.90;;;;;;5010171;28;20038;-65
2021/12/23 02:32:39;;;;;;;27.45;14.80;;;-0.30;99.90;;;;;;4994137;28;20065;-65
2021/12/23 02:35:10;;;;;;;20.58;13.43;;;-0.30;99.90;;;;;;5026566;28;20049;-65
2021/12/23 02:37:35;;;;;;;24.05;15.05;;;-0.30;99.90;;;;;;5026653;28;20061;-65
2021/12/23 02:40:02;;;;;;;20.15;13.40;;;-0.30;99.90;;;;;;4977143;28;20047;-65
2021/12/23 02:42:28;;;;;;;23.48;15.02;;;-0.30;99.90;;;;;;5007110;28;20050;-65
2021/12/23 02:44:54;;;;;;;23.58;14.65;;;-0.30;99.90;;;;;;4971897;28;20042;-65
2021/12/23 02:47:20;;;;;;;23.20;13.25;;;-0.30;99.90;;;;;;5006930;28;20038;-65
2021/12/23 02:49:46;;;;;;;16.48;10.15;;;-0.30;99.90;;;;;;4958130;28;20042;-65
2021/12/23 02:52:12;;;;;;;18.17;11.07;;;-0.30;99.90;;;;;;4974422;28;20187;-65
2021/12/23 02:54:38;;;;;;;18.23;12.77;;;-0.30;99.90;;;;;;4958116;28;20494;-65
2021/12/23 02:57:04;;;;;;;20.88;12.32;;;-0.30;99.90;;;;;;4990336;28;20042;-65
2021/12/23 02:59:30;;;;;;;20.63;11.25;;;-0.40;99.90;;;;;;4958168;28;20406;-64
2021/12/23 03:01:56;;;;;;;21.02;13.57;;;-0.40;99.90;;;;;;4957950;28;20051;-65
2021/12/23 03:04:22;;;;;;;21.45;12.70;;;-0.40;99.90;;;;;;4990064;28;20042;-65
2021/12/23 03:06:48;;;;;;;22.58;13.70;;;-0.40;99.90;;;;;;5006585;28;20449;-65
2021/12/23 03:09:14;;;;;;;25.10;14.95;;;-0.40;99.90;;;;;;5006674;28;20085;-65
2021/12/23 03:11:40;;;;;;;20.55;11.30;;;-0.40;99.90;;;;;;5006239;28;20100;-65
2021/12/23 03:14:07;;;;;;;23.48;13.98;;;-0.40;99.90;;;;;;5003976;28;20133;-65
2021/12/23 03:16:36;;;;;;;24.30;14.00;;;-0.40;99.90;;;;;;5006108;28;20512;-65
2021/12/23 03:19:03;;;;;;;21.38;13.20;;;-0.40;99.90;;;;;;4990301;28;20039;-64
2021/12/23 03:21:29;;;;;;;24.67;13.93;;;-0.40;99.90;;;;;;5006161;28;20302;-65
2021/12/23 03:23:55;;;;;;;18.90;9.48;;;-0.40;99.90;;;;;;4957787;28;20046;-65
2021/12/23 03:26:21;;;;;;;24.27;14.40;;;-0.40;99.90;;;;;;4973482;28;20043;-65
2021/12/23 03:28:47;;;;;;;23.75;14.10;;;-0.40;99.90;;;;;;4956795;28;20050;-64
2021/12/23 03:31:13;;;;;;;23.15;11.55;;;-0.40;99.90;;;;;;5006228;28;20046;-65
2021/12/23 03:33:39;;;;;;;20.42;10.63;;;-0.40;99.90;;;;;;4973534;28;20039;-65
2021/12/23 03:36:05;;;;;;;24.55;15.23;;;-0.40;99.90;;;;;;5005950;28;20127;-65
2021/12/23 03:38:31;;;;;;;19.30;10.82;;;-0.40;99.90;;;;;;5010208;28;20038;-65
2021/12/23 03:40:57;;;;;;;19.85;12.35;;;-0.40;99.90;;;;;;5025734;28;20133;-65
2021/12/23 03:43:23;;;;;;;17.63;10.30;;;-0.40;99.90;;;;;;4993059;28;20125;-65
2021/12/23 03:45:50;;;;;;;24.48;13.82;;;-0.40;99.90;;;;;;4990179;28;20568;-65
2021/12/23 03:48:17;;;;;;;25.90;15.02;;;-0.30;99.90;;;;;;4993065;28;20082;-65
2021/12/23 03:50:44;;;;;;;25.23;16.00;;;-0.30;99.90;;;;;;5025615;28;20397;-65
2021/12/23 03:53:11;;;;;;;22.90;14.68;;;-0.30;99.90;;;;;;5025902;28;20138;-65
2021/12/23 03:55:36;;;;;;;24.85;14.57;;;-0.30;99.90;;;;;;5008802;28;20046;-65
2021/12/23 03:58:03;;;;;;;22.63;15.10;;;-0.30;99.90;;;;;;5008933;28;20046;-65
2021/12/23 04:00:29;;;;;;;25.85;15.52;;;-0.20;99.90;;;;;;5025219;28;20489;-64
2021/12/23 04:02:55;;;;;;;25.08;14.63;;;-0.20;99.90;;;;;;5025257;28;20085;-65
2021/12/23 04:05:22;;;;;;;27.45;14.52;;;-0.20;99.90;;;;;;5025156;28;20077;-65
2021/12/23 04:07:47;;;;;;;27.00;15.40;;;-0.20;99.90;;;;;;4992402;28;20048;-64
2021/12/23 04:10:16;;;;;;;22.63;14.93;;;-0.10;99.90;;;;;;5008602;28;20037;-65
2021/12/23 04:12:43;;;;;;;21.85;12.77;;;-0.10;99.90;;;;;;5025099;28;20121;-65
2021/12/23 04:15:10;;;;;;;22.13;14.15;;;-0.10;99.90;;;;;;5022583;28;20571;-65
2021/12/23 04:17:36;;;;;;;21.65;14.32;;;-0.10;99.90;;;;;;4976949;28;20078;-65
2021/12/23 04:20:22;;;;;;;25.55;15.15;;;0.00;99.90;;;;;;4969930;28;20456;-65
2021/12/23 04:22:51;;;;;;;26.35;16.35;;;0.00;99.90;;;;;;5002073;28;20057;-65
2021/12/23 04:25:19;;;;;;;28.98;16.27;;;0.00;99.90;;;;;;4985687;28;20043;-64
2021/12/23 04:27:47;;;;;;;24.52;14.95;;;0.00;99.90;;;;;;5002156;28;20047;-65
2021/12/23 04:30:14;;;;;;;23.55;15.23;;;0.00;99.90;;;;;;5002001;28;20047;-65
2021/12/23 04:32:41;;;;;;;22.58;13.52;;;0.00;99.90;;;;;;4953595;28;20034;-65
2021/12/23 04:35:08;;;;;;;26.05;16.00;;;0.10;99.90;;;;;;5002466;28;20042;-65
2021/12/23 04:37:34;;;;;;;24.20;14.57;;;0.10;99.90;;;;;;4969374;28;20051;-65
2021/12/23 04:40:00;;;;;;;25.90;15.23;;;0.10;99.90;;;;;;4969548;28;20047;-65
2021/12/23 04:42:26;;;;;;;25.05;15.93;;;0.10;99.90;;;;;;4969349;28;20046;-65
2021/12/23 04:44:52;;;;;;;29.00;17.45;;;0.10;99.90;;;;;;4950802;28;20061;-65
2021/12/23 04:47:18;;;;;;;26.70;15.93;;;0.10;99.90;;;;;;4969449;28;20043;-65
2021/12/23 04:49:44;;;;;;;22.05;13.48;;;0.10;99.90;;;;;;4969149;28;20035;-65
2021/12/23 04:52:10;;;;;;;23.80;13.75;;;0.10;99.90;;;;;;4969099;28;20042;-65
2021/12/23 04:54:36;;;;;;;27.50;13.95;;;0.10;99.90;;;;;;4969443;28;20046;-65
2021/12/23 04:57:01;;;;;;;26.25;14.88;;;0.10;99.90;;;;;;4969036;28;20074;-65
2021/12/23 04:59:27;;;;;;;24.42;15.63;;;0.10;99.90;;;;;;4969152;28;20046;-65
2021/12/23 05:01:54;;;;;;;23.52;13.35;;;0.10;99.90;;;;;;4969009;28;20047;-65
2021/12/23 05:04:20;;;;;;;27.70;15.75;;;0.10;99.90;;;;;;4968975;28;20053;-65
2021/12/23 05:06:45;;;;;;;26.80;16.67;;;0.10;99.90;;;;;;4969150;28;20129;-65
2021/12/23 05:09:11;;;;;;;22.10;11.85;;;0.10;99.90;;;;;;4952981;28;20414;-65
2021/12/23 05:11:37;;;;;;;26.65;15.80;;;0.10;99.90;;;;;;4968843;28;20100;-65
2021/12/23 05:14:03;;;;;;;26.75;16.30;;;0.10;99.90;;;;;;4966933;28;20147;-64
2021/12/23 05:16:28;;;;;;;24.88;14.68;;;0.10;99.90;;;;;;4974743;28;20054;-65
2021/12/23 05:18:54;;;;;;;23.25;12.38;;;0.10;99.90;;;;;;4991435;28;20398;-65
2021/12/23 05:21:20;;;;;;;18.15;10.90;;;0.10;99.90;;;;;;4975217;28;20099;-64
2021/12/23 05:23:46;;;;;;;27.42;15.50;;;0.10;99.90;;;;;;4991464;28;20103;-65
2021/12/23 05:26:12;;;;;;;25.35;14.10;;;0.10;99.90;;;;;;4991387;28;20106;-65
2021/12/23 05:28:37;;;;;;;27.85;15.73;;;0.10;99.90;;;;;;4991354;28;20042;-64
2021/12/23 05:31:04;;;;;;;28.73;16.77;;;0.10;99.90;;;;;;4991360;28;20049;-65
2021/12/23 05:33:30;;;;;;;26.88;14.30;;;0.10;99.90;;;;;;4991367;28;20116;-65
2021/12/23 05:35:56;;;;;;;27.45;15.90;;;0.10;99.90;;;;;;4975035;28;20137;-65
2021/12/23 05:38:23;;;;;;;29.35;15.32;;;0.10;99.90;;;;;;4991170;28;20042;-65
2021/12/23 05:40:49;;;;;;;25.02;12.65;;;0.10;99.90;;;;;;5023981;28;20045;-65
2021/12/23 05:43:15;;;;;;;22.20;12.32;;;0.10;99.90;;;;;;4991185;28;20042;-65
2021/12/23 05:45:41;;;;;;;20.65;13.27;;;0.20;99.90;;;;;;4988789;28;20053;-65
2021/12/23 05:48:06;;;;;;;20.20;13.07;;;0.20;99.90;;;;;;5023840;28;20042;-65
2021/12/23 05:50:32;;;;;;;23.55;14.48;;;0.20;99.90;;;;;;4991096;28;20084;-64
2021/12/23 05:52:58;;;;;;;22.95;14.80;;;0.20;99.90;;;;;;4977190;28;20129;-64
2021/12/23 05:55:24;;;;;;;23.35;13.77;;;0.20;99.90;;;;;;4994482;28;20494;-64
2021/12/23 05:57:51;;;;;;;25.30;15.73;;;0.20;99.90;;;;;;4978199;28;20042;-64
2021/12/23 06:00:29;;;;;;;25.05;16.15;;;0.20;99.90;;;;;;5010627;28;20077;-64
2021/12/23 06:02:56;;;;;;;18.38;10.60;;;0.30;99.90;;;;;;4994186;28;20050;-65
2021/12/23 06:05:23;;;;;;;12.30;7.90;;;0.20;99.90;;;;;;4994506;28;20049;-64
2021/12/23 06:07:49;;;;;;;23.63;15.50;;;0.30;99.90;;;;;;4994469;28;20045;-64
2021/12/23 06:10:16;;;;;;;27.35;15.32;;;0.30;99.90;;;;;;5010566;28;20050;-64
2021/12/23 06:12:42;;;;;;;22.83;14.63;;;0.30;99.90;;;;;;5010676;28;20038;-64
2021/12/23 06:15:09;;;;;;;25.38;13.57;;;0.40;99.90;;;;;;4991876;28;20095;-64
2021/12/23 06:17:36;;;;;;;26.20;15.75;;;0.30;99.90;;;;;;5010117;28;20136;-64
2021/12/23 06:20:05;;;;;;;26.98;15.82;;;0.30;99.90;;;;;;4994121;28;20107;-64
2021/12/23 06:22:34;;;;;;;23.65;14.75;;;0.30;99.90;;;;;;4993979;28;20038;-64
2021/12/23 06:25:00;;;;;;;25.77;15.43;;;0.30;99.90;;;;;;4977759;28;20042;-64
2021/12/23 06:27:26;;;;;;;27.70;16.02;;;0.30;99.90;;;;;;4993890;28;20056;-64
2021/12/23 06:29:52;;;;;;;15.73;10.20;;;0.20;99.90;;;;;;5026933;28;20124;-65
2021/12/23 06:32:18;;;;;;;21.40;11.85;;;0.30;99.90;;;;;;4993834;28;20041;-65
2021/12/23 06:34:43;;;;;;;24.60;15.02;;;0.30;99.90;;;;;;5027002;28;20102;-65
2021/12/23 06:37:09;;;;;;;28.48;16.90;;;0.30;99.90;;;;;;5026843;28;20046;-65
2021/12/23 06:39:36;;;;;;;25.38;16.65;;;0.30;99.90;;;;;;4993717;28;20085;-64
2021/12/23 06:42:03;;;;;;;27.08;16.23;;;0.30;99.90;;;;;;4994001;28;20550;-65
2021/12/23 06:44:29;;;;;;;25.40;15.68;;;0.30;99.90;;;;;;4975104;28;20541;-64
2021/12/23 06:46:54;;;;;;;26.58;15.40;;;0.30;99.90;;;;;;4977546;28;20125;-64
2021/12/23 06:49:21;;;;;;;26.25;15.15;;;0.30;99.90;;;;;;4993674;28;20045;-65
2021/12/23 06:51:46;;;;;;;24.08;14.07;;;0.30;99.90;;;;;;4993677;28;20045;-64
2021/12/23 06:54:16;;;;;;;18.40;11.00;;;0.30;99.90;;;;;;4993509;28;20038;-64
2021/12/23 06:56:42;;;;;;;16.48;10.05;;;0.30;99.90;;;;;;4977429;28;20041;-65
2021/12/23 06:59:08;;;;;;;25.90;15.35;;;0.30;99.90;;;;;;4993471;28;20091;-65
2021/12/23 07:01:34;;;;;;;22.13;13.05;;;0.30;99.90;;;;;;4993546;28;20128;-65
2021/12/23 07:04:11;;;;;;;25.58;14.85;;;0.30;99.90;;;;;;4992269;28;20054;-64
2021/12/23 07:06:45;;;;;;;24.92;14.98;;;0.30;99.90;;;;;;4993435;28;20054;-64
2021/12/23 07:09:11;;;;;;;26.90;14.15;;;0.30;99.90;;;;;;4993265;28;20052;-65
2021/12/23 07:11:37;;;;;;;27.17;18.13;;;0.30;99.90;;;;;;4977315;28;20050;-64
2021/12/23 07:14:03;;;;;;;26.70;15.55;;;0.30;99.90;;;;;;4991097;28;20587;-64
2021/12/23 07:16:29;;;;;;;20.55;11.35;;;0.30;99.90;;;;;;4976934;28;20162;-64
2021/12/23 07:18:55;;;;;;;22.33;14.18;;;0.30;99.90;;;;;;4993330;28;20137;-64
2021/12/23 07:21:21;;;;;;;26.85;15.65;;;0.30;99.90;;;;;;4993153;28;20125;-64
2021/12/23 07:23:47;;;;;;;23.73;12.63;;;0.30;99.90;;;;;;4993129;28;20085;-64
2021/12/23 07:26:14;;;;;;;26.33;15.93;;;0.30;99.90;;;;;;4992991;28;20077;-64
2021/12/23 07:28:40;;;;;;;23.48;15.02;;;0.30;99.90;;;;;;4993188;28;20046;-64
2021/12/23 07:31:05;;;;;;;26.13;16.88;;;0.30;99.90;;;;;;5010615;28;20382;-64
2021/12/23 07:33:34;;;;;;;23.00;13.00;;;0.30;99.90;;;;;;4993143;28;20046;-64
2021/12/23 07:36:02;;;;;;;25.00;15.05;;;0.30;99.90;;;;;;4993320;28;20049;-64
2021/12/23 07:38:28;;;;;;;31.08;18.95;;;0.30;99.90;;;;;;4992927;28;20042;-64
2021/12/23 07:40:54;;;;;;;32.45;18.67;;;0.30;99.90;;;;;;4993075;28;20048;-64
2021/12/23 07:43:43;;;;;;;25.40;15.65;;;0.30;99.90;;;;;;5008948;28;20077;-64
2021/12/23 07:46:10;;;;;;;30.08;18.83;;;0.30;99.90;;;;;;4992493;28;20401;-64
2021/12/23 07:48:36;;;;;;;27.38;17.50;;;0.30;99.90;;;;;;4993008;28;20038;-64
2021/12/23 07:51:04;;;;;;;23.98;13.38;;;0.30;99.90;;;;;;5009038;28;20061;-65
2021/12/23 07:53:30;;;;;;;26.60;15.70;;;0.30;99.90;;;;;;5025297;28;20121;-65
2021/12/23 07:55:56;;;;;;;23.20;13.25;;;0.30;99.90;;;;;;4992917;28;20432;-64
2021/12/23 07:58:22;;;;;;;38.58;20.35;;;0.30;99.90;;;;;;5025537;28;20102;-64
2021/12/23 08:00:47;;;;;;;32.10;17.25;;;0.30;99.90;;;;;;5025604;28;20046;-65
2021/12/23 08:03:13;;;;;;;30.45;15.07;;;0.30;99.90;;;;;;5008179;28;20402;-65
2021/12/23 08:05:41;;;;;;;33.25;20.40;;;0.30;99.90;;;;;;4992516;28;20049;-65
2021/12/23 08:08:07;;;;;;;36.95;21.50;;;0.30;99.90;;;;;;4992333;28;20106;-65
2021/12/23 08:10:33;;;;;;;41.60;23.83;;;0.30;99.90;;;;;;5025144;28;20034;-65
2021/12/23 08:13:00;;;;;;;43.00;25.98;;;0.20;99.90;;;;;;4992315;28;20045;-64
2021/12/23 08:15:25;;;;;;;35.35;21.30;;;0.20;99.90;;;;;;4989874;28;20064;-65
2021/12/23 08:17:51;;;;;;;45.78;24.25;;;0.20;99.90;;;;;;5024999;28;20054;-65
2021/12/23 08:20:17;;;;;;;38.30;23.55;;;0.20;99.90;;;;;;4992276;28;20589;-65
2021/12/23 08:22:43;;;;;;;42.45;24.90;;;0.20;99.90;;;;;;5024914;28;20050;-65
2021/12/23 08:25:11;;;;;;;43.03;25.25;;;0.20;99.90;;;;;;4991993;28;20050;-65
2021/12/23 08:27:38;;;;;;;35.28;20.65;;;0.20;99.90;;;;;;5025128;28;20497;-65
2021/12/23 08:30:06;;;;;;;40.80;23.58;;;0.30;99.90;;;;;;4997342;28;20071;-65
2021/12/23 08:32:32;;;;;;;42.90;26.10;;;0.20;99.90;;;;;;4992057;28;20042;-65
2021/12/23 08:34:58;;;;;;;46.97;26.48;;;0.30;99.90;;;;;;5024076;28;20088;-65
2021/12/23 08:37:24;;;;;;;42.42;23.30;;;0.30;99.90;;;;;;5077427;28;20031;-65
2021/12/23 08:39:51;;;;;;;43.03;25.40;;;0.30;99.90;;;;;;5016013;28;20041;-65
2021/12/23 08:42:16;;;;;;;40.92;22.77;;;0.30;99.90;;;;;;4992013;28;20049;-65
2021/12/23 08:44:42;;;;;;;49.38;25.13;;;0.30;99.90;;;;;;4989251;28;20098;-65
2021/12/23 08:47:10;;;;;;;32.65;16.45;;;0.30;99.90;;;;;;5007787;28;20043;-65
2021/12/23 08:49:36;;;;;;;44.30;25.73;;;0.30;99.90;;;;;;5093966;28;20050;-65
2021/12/23 08:52:03;;;;;;;35.03;20.75;;;0.30;99.90;;;;;;5093882;28;20122;-65
2021/12/23 08:54:29;;;;;;;52.38;28.90;;;0.30;99.90;;;;;;5093947;28;20035;-65
2021/12/23 08:56:55;;;;;;;42.05;22.75;;;0.30;99.90;;;;;;5094173;28;20046;-65
2021/12/23 08:59:21;;;;;;;52.88;27.17;;;0.30;99.90;;;;;;5094083;28;20051;-65
2021/12/23 09:01:47;;;;;;;52.58;26.63;;;0.30;99.90;;;;;;5077234;28;20411;-65
2021/12/23 09:04:13;;;;;;;46.25;23.52;;;0.30;99.90;;;;;;5093839;28;20047;-65
2021/12/23 09:06:38;;;;;;;49.97;24.92;;;0.30;99.90;;;;;;5094320;28;20388;-66
2021/12/23 09:09:07;;;;;;;49.00;23.92;;;0.30;99.90;;;;;;5094165;28;20044;-65
2021/12/23 09:11:33;;;;;;;45.38;21.08;;;0.40;99.90;;;;;;5094321;28;20043;-65
2021/12/23 09:13:59;;;;;;;66.35;33.13;;;0.40;99.90;;;;;;5091641;28;20032;-65
2021/12/23 09:16:25;;;;;;;43.50;23.50;;;0.40;99.90;;;;;;5093895;28;20053;-65
2021/12/23 09:18:51;;;;;;;39.55;19.73;;;0.40;99.90;;;;;;5093960;28;20131;-65
2021/12/23 09:21:17;;;;;;;64.15;32.90;;;0.40;99.90;;;;;;5094102;28;20396;-65
2021/12/23 09:23:43;;;;;;;67.78;32.17;;;0.40;99.90;;;;;;5093844;28;20036;-65
2021/12/23 09:26:10;;;;;;;65.90;32.42;;;0.40;99.90;;;;;;5093944;28;20070;-66
2021/12/23 09:33:51;;;;;;;65.57;31.92;;;0.40;99.90;;;;;;5097665;28;20049;-66
2021/12/23 09:36:17;;;;;;;74.80;32.20;;;0.40;99.90;;;;;;5011523;28;20042;-65
2021/12/23 09:38:44;;;;;;;75.00;34.97;;;0.40;99.90;;;;;;4994561;28;20574;-65
2021/12/23 09:41:13;;;;;;;77.40;32.50;;;0.40;99.90;;;;;;4994996;28;20390;-65
2021/12/23 09:43:41;;;;;;;56.08;28.05;;;0.50;99.90;;;;;;5026681;28;20088;-65
2021/12/23 09:46:11;;;;;;;60.97;27.80;;;0.50;99.90;;;;;;4993148;28;20038;-65
2021/12/23 09:48:42;;;;;;;50.63;23.48;;;0.50;99.90;;;;;;5027310;28;20508;-65
2021/12/23 09:51:09;;;;;;;65.05;31.38;;;0.50;99.90;;;;;;4994702;28;20067;-65
2021/12/23 09:53:37;;;;;;;55.80;27.00;;;0.50;99.90;;;;;;5010782;28;20125;-65
2021/12/23 09:56:04;;;;;;;52.17;24.90;;;0.50;99.90;;;;;;4994345;28;20046;-65
2021/12/23 09:58:30;;;;;;;68.80;29.20;;;0.50;99.90;;;;;;4994670;28;20037;-65
2021/12/23 10:00:56;;;;;;;71.47;34.95;;;0.50;99.90;;;;;;4994409;28;20397;-65
2021/12/23 10:03:24;;;;;;;60.97;29.33;;;0.60;99.90;;;;;;5010972;28;20046;-65
2021/12/23 10:05:51;;;;;;;68.30;32.67;;;0.60;99.90;;;;;;5010468;28;20056;-65
2021/12/23 10:08:17;;;;;;;70.38;32.50;;;0.60;99.90;;;;;;4994261;28;20487;-65
2021/12/23 10:10:49;;;;;;;74.40;35.20;;;0.60;99.90;;;;;;4978206;28;20041;-65
2021/12/23 10:38:43;;;;;;;72.22;33.10;;;0.70;99.90;;;;;;4990035;28;20516;-65
2021/12/23 10:41:27;;;;;;;57.20;30.20;;;0.70;99.90;;;;;;4990257;28;20046;-65
2021/12/23 10:44:01;;;;;;;63.20;27.98;;;0.70;99.90;;;;;;4972007;28;20076;-66
2021/12/23 10:46:31;;;;;;;68.78;34.40;;;0.80;99.90;;;;;;4990139;28;20085;-66
2021/12/23 10:52:10;;;;;;;76.30;35.25;;;0.70;99.90;;;;;;5023175;28;20304;-66
2021/12/23 11:00:24;;;;;;;82.13;34.83;;;0.70;99.90;;;;;;5022939;28;20050;-67
2021/12/23 11:03:16;;;;;;;63.13;26.90;;;0.80;99.90;;;;;;5006652;28;20054;-67
2021/12/23 11:05:50;;;;;;;73.22;29.52;;;0.70;99.90;;;;;;5022888;28;20133;-67
2021/12/23 11:38:20;;;;;;;77.07;34.58;;;0.90;99.90;;;;;;5104418;28;20079;-68
2021/12/23 11:45:47;;;;;;;60.40;26.90;;;0.90;99.90;;;;;;5049232;28;20044;-68
2021/12/23 11:48:14;;;;;;;49.22;21.40;;;1.00;99.90;;;;;;5051779;28;20124;-69
2021/12/23 11:50:53;;;;;;;70.93;34.00;;;1.00;99.90;;;;;;5051248;28;20073;-69
2021/12/23 11:53:20;;;;;;;73.15;31.75;;;1.00;99.90;;;;;;5085088;28;20099;-69
2021/12/23 11:55:47;;;;;;;55.65;26.25;;;1.00;99.90;;;;;;5051414;28;20571;-69
2021/12/23 11:58:14;;;;;;;59.88;26.58;;;1.00;99.90;;;;;;5051749;28;20045;-69
2021/12/23 12:00:43;;;;;;;53.78;26.13;;;1.00;99.90;;;;;;5084958;28;20594;-69
2021/12/23 12:03:13;;;;;;;54.13;24.77;;;1.00;99.90;;;;;;5068092;28;20045;-69
2021/12/23 12:05:40;;;;;;;55.00;26.52;;;1.00;99.90;;;;;;5084943;28;20558;-68
2021/12/23 12:08:13;;;;;;;64.60;27.00;;;1.10;99.90;;;;;;5085129;28;20063;-68
2021/12/23 12:10:41;;;;;;;55.78;25.35;;;1.10;99.90;;;;;;5051677;28;20068;-69
2021/12/23 12:13:11;;;;;;;63.75;30.17;;;1.10;99.90;;;;;;5051245;28;20036;-69
2021/12/23 12:15:41;;;;;;;57.97;26.92;;;1.10;99.90;;;;;;5048943;28;20421;-69
2021/12/23 12:18:19;;;;;;;54.38;24.65;;;1.10;99.90;;;;;;5000312;28;20388;-69
2021/12/23 12:20:50;;;;;;;67.65;30.67;;;1.10;99.90;;;;;;4950657;28;20478;-70
2021/12/23 12:23:35;;;;;;;52.25;22.85;;;1.20;99.90;;;;;;4950394;28;20096;-69
2021/12/23 12:26:10;;;;;;;48.10;23.05;;;1.10;99.90;;;;;;4950386;28;20085;-68
2021/12/23 12:28:42;;;;;;;51.10;25.38;;;1.20;99.90;;;;;;4950292;28;20054;-68
2021/12/23 12:31:13;;;;;;;56.42;25.63;;;1.20;99.90;;;;;;4934111;29;20502;-68
2021/12/23 12:33:42;;;;;;;53.63;24.73;;;1.10;99.90;;;;;;4950200;28;20039;-67
2021/12/23 12:36:19;;;;;;;77.97;33.90;;;1.20;99.90;;;;;;4934221;29;20108;-68
2021/12/23 12:38:54;;;;;;;68.90;32.70;;;1.10;99.90;;;;;;4956165;28;20047;-68
2021/12/23 12:41:36;;;;;;;70.65;35.05;;;1.10;99.90;;;;;;4953435;28;20107;-68
2021/12/23 12:44:11;;;;;;;72.18;34.35;;;1.10;99.90;;;;;;4999640;28;20324;-68
2021/12/23 12:46:44;;;;;;;73.22;34.38;;;1.10;99.90;;;;;;5001761;28;20100;-68
2021/12/23 12:49:27;;;;;;;57.30;28.40;;;1.20;99.90;;;;;;4969604;28;20089;-68
2021/12/23 12:52:05;;;;;;;67.40;31.30;;;1.20;99.90;;;;;;5001840;28;20096;-68
2021/12/23 12:54:32;;;;;;;69.78;32.72;;;1.20;99.90;;;;;;5001676;28;20045;-68
2021/12/23 12:57:04;;;;;;;53.97;25.55;;;1.20;99.90;;;;;;4969055;28;20126;-69
2021/12/23 12:59:36;;;;;;;64.45;33.75;;;1.20;99.90;;;;;;5001612;28;20039;-68
2021/12/23 13:02:17;;;;;;;54.05;25.58;;;1.20;99.90;;;;;;5000331;28;20049;-67
2021/12/23 13:04:57;;;;;;;74.18;34.95;;;1.20;99.90;;;;;;4969211;28;20039;-67
2021/12/23 13:07:34;;;;;;;62.38;27.52;;;1.10;99.90;;;;;;5001494;28;20047;-68
2021/12/23 13:10:06;;;;;;;68.78;33.42;;;1.20;99.90;;;;;;4969034;28;20221;-68
2021/12/23 13:12:48;;;;;;;68.60;32.80;;;1.20;99.90;;;;;;4969417;28;20188;-68
2021/12/23 13:15:16;;;;;;;72.20;34.72;;;1.20;99.90;;;;;;4950629;28;20060;-68
2021/12/23 13:17:47;;;;;;;54.42;26.92;;;1.20;99.90;;;;;;4968905;28;20528;-67
2021/12/23 13:20:14;;;;;;;75.30;34.40;;;1.20;99.90;;;;;;4968867;28;20518;-68
2021/12/23 13:22:42;;;;;;;77.18;36.13;;;1.20;99.90;;;;;;4968832;28;20058;-67
2021/12/23 13:25:09;;;;;;;79.72;36.33;;;1.20;99.90;;;;;;4952628;28;20039;-67
2021/12/23 13:27:39;;;;;;;73.68;35.30;;;1.30;99.90;;;;;;5001157;28;20047;-68
2021/12/23 13:30:08;;;;;;;66.73;31.50;;;1.30;99.90;;;;;;5001564;28;20035;-68
2021/12/23 13:32:34;;;;;;;69.13;31.80;;;1.30;99.90;;;;;;4968912;28;20372;-68
2021/12/23 13:35:14;;;;;;;72.10;33.95;;;1.30;99.90;;;;;;4952628;28;20050;-67
2021/12/23 13:37:46;;;;;;;70.75;32.92;;;1.40;99.90;;;;;;4968569;28;20184;-67
2021/12/23 13:40:25;;;;;;;69.72;33.55;;;1.40;99.90;;;;;;4951331;28;20035;-67
2021/12/23 13:42:51;;;;;;;74.32;34.88;;;1.40;99.90;;;;;;4949516;29;20126;-68
2021/12/23 13:45:18;;;;;;;80.47;35.60;;;1.40;99.90;;;;;;4979148;28;20606;-68
2021/12/23 13:47:44;;;;;;;75.38;33.95;;;1.50;99.90;;;;;;4949254;28;20051;-68
2021/12/23 13:50:11;;;;;;;69.78;32.88;;;1.50;99.90;;;;;;4949302;28;20055;-68
2021/12/23 13:52:40;;;;;;;69.32;34.30;;;1.50;99.90;;;;;;4933252;29;20070;-68
2021/12/23 13:55:09;;;;;;;70.32;33.25;;;1.50;99.90;;;;;;4949498;28;20054;-68
2021/12/23 13:57:42;;;;;;;69.70;33.22;;;1.60;99.90;;;;;;4949352;28;20068;-68